Navan, Ireland
Current Conditions -  °F | °C
As of 8:30 PM on Wednesday 26 Nov 2014 (Local Time) from EIDW Reporting Station
Light Fog Light Fog  
Wind Chill: 32°   Ceiling: Unl
Heat Index: 32°   Visibility: 5mi
Dew Point: 32°   Wind: 3mph
Humidity: 100%   Direction: 300°WNW
Pressure: 29.8"   Gusts: NA
Location:  53.66°N, 6.69°W
Report Text: EIDW 262030Z 30003KT 8000 R16/1900U R28/1600D R10/1000V1300N MIFG FEW012 00/00 Q1009 BECMG 2000 BKN003
Loading
Personal Weather Stations






























Interactive Weather Map New forecast layout! Learn more

10-Day Weather Forecast

Advertisements
Track Severe Weather on mobile